Hauptseite
METAR-TAF:

METAR-TAF

Flughäfen :

City-Airport Mannheim

Mannheim, Deutschland

Breite: 49-28-21N, Länge: 008-30-56E, Höhe: 100 m

Beobachtung

Neuester Wetterbericht von vor 39 Minuten, um 06:20 UTC
Wind 3 kt aus unterschiedlichen Richtungen
Temperatur 8°C
Luftfeuchtigkeit 93%
Luftdruck 1026 hPa
Sichtweite 10 km oder mehr
Leicht bewölkt in der Höhe von 3800 ft

METAR: EDFM 070620Z VRB03KT 9999 FEW038 08/07 Q1026

Zeit: 08:59 (06:59 UTC)

Prognose

Neuester Wetterbericht von vor 1 Stunde und 59 Minuten, um 05:00 UTC
Gültige Prognose vom 07 um 06 UTC bis 07 um 15 UTC
Wind 3 kt aus unterschiedlichen Richtungen
Sichtweite 10 km oder mehr
Aufgelockert bewölkt in der Höhe von 4500 ft

TAF: EDFM 070500Z 0706/0715 VRB03KT 9999 SCT045

Wetterbeobachtungen und Prognosen von mehr als 4000 Flughäfen (METAR und TAF Bericht).

Die verfügbaren Stationen werden durch gelbe und rote Markierungen auf der Karte dargestellt.

Führen Sie die Maus auf sie, um den Namen der Station zu sehen.

Darauf klicken, um die Beobachtung von Wetterbeobachtungen und Prognosen zu sehen.

Um die Karte zu ändern : klicken Sie auf den grünen Tasten mit einem schwarzen Kreuz Zum Vergrößern, auf den grünen Button mit einem Gedankenstrich zu verkleinern, oder auf die grünen Pfeile für benachbarte Karten.


METAR-TAF: